Time;durP1;ratioP1;P1;durP2;ratioP2;P2;SDS_P1;SDS_P2;PMS_P1;PMS_P2;Temp;Humidity;BMP_temperature;BMP_pressure;BME280_temperature;BME280_humidity;BME280_pressure;Samples;Min_cycle;Max_cycle;Signal;HPM_P1;HPM_P2
2022/08/06 00:00:41;;;;;;;1.30;0.10;;;;;;;10.85;50.45;102357.31;5014504;28;20061;-78
2022/08/06 00:03:08;;;;;;;0.80;0.10;;;;;;;10.89;50.21;102361.59;5006842;28;20057;-77
2022/08/06 00:05:33;;;;;;;2.40;0.10;;;;;;;10.88;50.21;102362.47;5024010;28;20084;-76
2022/08/06 00:07:59;;;;;;;1.27;0.32;;;;;;;10.90;50.01;102362.47;5008460;28;20459;-77
2022/08/06 00:10:25;;;;;;;0.47;0.10;;;;;;;10.86;50.10;102377.38;5014690;28;20096;-75
2022/08/06 00:12:51;;;;;;;3.85;0.20;;;;;;;10.82;50.38;102375.69;4997536;28;20041;-78
2022/08/06 00:15:17;;;;;;;2.40;0.20;;;;;;;10.73;50.07;102375.81;5011962;28;20511;-78
2022/08/06 00:17:44;;;;;;;2.17;0.10;;;;;;;10.71;50.77;102374.97;4993313;28;20166;-77
2022/08/06 00:20:11;;;;;;;2.33;0.15;;;;;;;10.67;50.53;102378.53;5012590;28;20719;-77
2022/08/06 00:22:37;;;;;;;0.20;0.10;;;;;;;10.64;50.73;102382.91;5008522;28;20767;-77
2022/08/06 00:25:03;;;;;;;1.85;0.10;;;;;;;10.50;50.78;102384.88;4996221;28;20107;-77
2022/08/06 00:27:29;;;;;;;2.45;0.20;;;;;;;10.54;50.62;102383.94;5008211;28;20030;-77
2022/08/06 00:29:54;;;;;;;0.95;0.20;;;;;;;10.49;50.81;102388.38;5012134;28;20065;-77
2022/08/06 00:32:20;;;;;;;0.75;0.10;;;;;;;10.49;50.66;102384.91;5009190;28;20684;-77
2022/08/06 00:34:45;;;;;;;3.25;0.57;;;;;;;10.42;50.64;102394.59;5010284;28;20751;-76
2022/08/06 00:37:11;;;;;;;0.60;0.10;;;;;;;10.34;51.24;102396.44;5014328;28;20124;-77
2022/08/06 00:39:36;;;;;;;2.65;0.10;;;;;;;10.30;50.93;102392.16;5015977;28;20140;-79
2022/08/06 00:42:02;;;;;;;1.05;0.10;;;;;;;10.30;51.04;102397.38;5009025;28;20049;-78
2022/08/06 00:44:27;;;;;;;0.73;0.30;;;;;;;10.24;51.13;102400.09;5006166;28;20060;-78
2022/08/06 00:46:53;;;;;;;1.60;0.10;;;;;;;10.14;51.21;102394.13;5023158;28;20595;-78
2022/08/06 00:49:18;;;;;;;0.77;0.10;;;;;;;10.17;51.12;102405.41;5011192;28;20117;-77
2022/08/06 00:51:44;;;;;;;0.38;0.17;;;;;;;10.06;51.52;102407.31;5012366;28;20117;-77
2022/08/06 00:54:11;;;;;;;0.35;0.20;;;;;;;10.07;51.40;102406.41;4992801;28;20071;-79
2022/08/06 00:56:36;;;;;;;2.60;0.20;;;;;;;9.98;51.71;102414.38;5000913;28;20026;-77
2022/08/06 00:59:03;;;;;;;2.50;0.30;;;;;;;9.95;51.57;102414.41;4999143;28;20546;-77
2022/08/06 01:01:28;;;;;;;2.65;0.20;;;;;;;9.89;51.57;102414.50;4999254;28;20668;-76
2022/08/06 01:03:54;;;;;;;0.50;0.17;;;;;;;9.79;51.68;102422.44;5011559;28;20030;-76
2022/08/06 01:06:20;;;;;;;1.52;0.20;;;;;;;9.74;52.42;102420.72;5012109;28;20038;-76
2022/08/06 01:08:45;;;;;;;1.45;0.20;;;;;;;9.83;51.60;102428.47;5007843;28;20053;-77
2022/08/06 01:11:11;;;;;;;1.70;0.20;;;;;;;9.87;51.99;102429.31;5023863;28;20034;-77
2022/08/06 01:13:37;;;;;;;0.63;0.20;;;;;;;9.84;52.13;102427.59;5008903;28;20048;-77
2022/08/06 01:16:03;;;;;;;0.32;0.13;;;;;;;9.89;51.62;102427.56;4992772;28;20037;-76
2022/08/06 01:18:34;;;;;;;0.63;0.20;;;;;;;9.77;51.98;102426.78;5013467;28;20076;-76
2022/08/06 01:21:27;;;;;;;0.80;0.38;;;;;;;9.84;51.81;102427.59;4995773;28;20445;-77
2022/08/06 01:24:25;;;;;;;1.75;0.28;;;;;;;9.84;51.87;102431.97;5023903;28;20046;-77
2022/08/06 01:26:57;;;;;;;0.95;0.10;;;;;;;9.75;51.80;102436.38;5006771;28;20056;-78
2022/08/06 01:29:27;;;;;;;1.45;0.20;;;;;;;9.78;51.70;102441.56;5000078;28;20045;-77
2022/08/06 01:32:02;;;;;;;0.40;0.20;;;;;;;9.69;51.81;102443.41;5013619;28;20045;-79
2022/08/06 01:34:31;;;;;;;0.50;0.10;;;;;;;9.64;52.15;102440.84;5015249;28;20047;-77
2022/08/06 01:37:21;;;;;;;1.52;0.25;;;;;;;9.60;52.09;102447.00;5011202;28;20080;-77
2022/08/06 01:39:53;;;;;;;0.32;0.22;;;;;;;9.48;52.56;102444.53;5008196;28;20140;-77
2022/08/06 01:42:21;;;;;;;0.68;0.20;;;;;;;9.38;52.68;102443.72;5011308;28;20795;-77
2022/08/06 01:44:49;;;;;;;2.08;0.20;;;;;;;9.44;52.57;102442.81;5010501;28;20480;-77
2022/08/06 01:47:18;;;;;;;0.90;0.10;;;;;;;9.49;52.85;102441.88;5015207;28;20296;-78
2022/08/06 01:49:51;;;;;;;3.55;0.20;;;;;;;9.57;52.53;102439.22;5011747;28;20471;-76
2022/08/06 01:52:19;;;;;;;0.50;0.25;;;;;;;9.65;52.14;102447.78;5011599;28;20033;-77
2022/08/06 01:54:48;;;;;;;2.03;0.30;;;;;;;9.69;52.06;102449.50;5010121;28;20025;-75
2022/08/06 01:57:17;;;;;;;0.52;0.10;;;;;;;9.65;51.69;102450.41;5010168;28;20041;-78
2022/08/06 01:59:46;;;;;;;1.05;0.20;;;;;;;9.46;51.73;102446.28;5008304;28;20029;-77
2022/08/06 02:02:17;;;;;;;0.85;0.22;;;;;;;9.39;52.25;102450.69;5010956;28;20714;-77
2022/08/06 02:04:45;;;;;;;0.75;0.10;;;;;;;9.32;52.26;102459.44;4996645;28;20034;-77
2022/08/06 02:07:14;;;;;;;0.30;0.30;;;;;;;9.25;52.22;102465.59;5024073;28;20045;-77
2022/08/06 02:09:43;;;;;;;0.50;0.20;;;;;;;9.34;52.20;102462.91;5010233;28;20596;-77
2022/08/06 02:12:13;;;;;;;1.55;0.20;;;;;;;9.38;52.25;102469.81;5027088;28;20053;-76
2022/08/06 02:14:47;;;;;;;0.70;0.10;;;;;;;9.45;52.15;102468.88;4998442;28;20030;-77
2022/08/06 02:17:15;;;;;;;0.38;0.10;;;;;;;9.46;52.24;102461.94;5008004;28;20530;-77
2022/08/06 02:19:50;;;;;;;1.38;0.25;;;;;;;9.38;52.38;102465.47;5008988;28;20048;-78
2022/08/06 02:22:17;;;;;;;5.50;0.52;;;;;;;9.32;52.18;102457.72;5002059;28;20120;-78
2022/08/06 02:24:45;;;;;;;2.35;0.20;;;;;;;9.25;52.59;102463.84;5013879;28;20030;-78
2022/08/06 02:27:12;;;;;;;1.38;0.22;;;;;;;9.13;52.97;102466.59;5025269;28;20048;-79
2022/08/06 02:29:41;;;;;;;5.18;0.20;;;;;;;9.03;52.93;102467.53;5025885;28;20028;-78
2022/08/06 02:32:07;;;;;;;0.52;0.20;;;;;;;9.06;53.13;102477.94;5007555;28;20091;-77
2022/08/06 02:34:32;;;;;;;1.95;0.30;;;;;;;9.11;53.01;102471.81;4999322;28;20037;-77
2022/08/06 02:37:21;;;;;;;0.85;0.20;;;;;;;9.02;53.02;102476.25;5014722;28;20049;-77
2022/08/06 02:39:55;;;;;;;1.85;0.30;;;;;;;9.01;53.12;102482.31;5005887;28;20088;-75
2022/08/06 02:43:01;;;;;;;0.50;0.20;;;;;;;9.06;53.16;102484.03;5002425;28;20052;-76
2022/08/06 02:45:35;;;;;;;1.35;0.30;;;;;;;9.10;53.02;102474.44;4998342;28;20112;-77
2022/08/06 02:48:07;;;;;;;1.02;0.30;;;;;;;9.15;53.19;102483.09;5011457;28;20041;-78
2022/08/06 02:50:40;;;;;;;2.05;0.40;;;;;;;9.18;52.63;102488.28;5019509;28;20104;-77
2022/08/06 02:53:13;;;;;;;1.67;0.70;;;;;;;9.20;53.05;102486.50;5010524;28;20057;-77
2022/08/06 02:55:45;;;;;;;1.98;0.20;;;;;;;9.28;53.17;102483.84;5022466;28;20159;-76
2022/08/06 02:58:14;;;;;;;0.50;0.30;;;;;;;9.42;52.76;102483.72;5016493;28;20877;-77
2022/08/06 03:00:42;;;;;;;4.03;0.30;;;;;;;9.45;52.71;102484.53;5017828;28;20032;-77
2022/08/06 03:03:09;;;;;;;1.92;0.40;;;;;;;9.35;52.67;102481.16;5003403;28;20057;-78
2022/08/06 03:05:36;;;;;;;1.65;0.30;;;;;;;9.39;52.56;102492.44;5005993;28;20029;-78
2022/08/06 03:08:06;;;;;;;2.75;0.50;;;;;;;9.25;52.79;102483.88;5013633;28;20065;-78
2022/08/06 03:10:33;;;;;;;0.88;0.30;;;;;;;9.15;52.65;102483.94;4988656;28;20029;-77
2022/08/06 03:13:00;;;;;;;3.03;0.47;;;;;;;9.09;53.06;102483.13;4996156;28;20053;-77
2022/08/06 03:15:28;;;;;;;1.45;0.65;;;;;;;9.14;53.25;102486.56;5032538;28;20054;-77
2022/08/06 03:17:58;;;;;;;0.75;0.20;;;;;;;9.03;53.71;102491.88;5031103;28;20494;-79
2022/08/06 03:20:26;;;;;;;0.35;0.15;;;;;;;9.27;53.26;102487.34;5017534;28;20026;-78
2022/08/06 03:22:54;;;;;;;0.40;0.20;;;;;;;9.31;53.04;102489.03;5021603;28;20041;-78
2022/08/06 03:25:21;;;;;;;1.77;0.28;;;;;;;9.31;52.90;102495.13;5004780;28;20622;-76
2022/08/06 03:27:48;;;;;;;1.95;0.17;;;;;;;9.30;52.76;102488.19;5031685;28;20037;-75
2022/08/06 03:30:16;;;;;;;0.80;0.10;;;;;;;9.34;52.60;102491.59;5019342;28;20041;-78
2022/08/06 03:32:42;;;;;;;1.15;0.20;;;;;;;9.33;52.70;102487.28;5033639;28;20033;-77
2022/08/06 03:35:08;;;;;;;2.20;0.30;;;;;;;9.27;52.90;102485.56;5005030;28;20051;-77
2022/08/06 03:37:36;;;;;;;0.80;0.20;;;;;;;9.35;52.56;102490.75;5032156;28;20059;-77
2022/08/06 03:40:04;;;;;;;0.90;0.20;;;;;;;9.30;52.52;102492.53;5030627;28;20120;-77
2022/08/06 03:42:30;;;;;;;0.95;0.25;;;;;;;9.30;52.57;102497.75;5009983;28;20132;-77
2022/08/06 03:44:55;;;;;;;1.75;0.20;;;;;;;9.24;52.24;102503.88;4999557;28;20126;-76
2022/08/06 03:47:32;;;;;;;1.02;0.20;;;;;;;9.15;52.52;102503.97;5000669;28;20396;-77
2022/08/06 03:50:13;;;;;;;0.95;0.20;;;;;;;9.17;52.35;102508.28;5012097;28;20041;-78
2022/08/06 03:52:47;;;;;;;0.47;0.30;;;;;;;9.19;52.75;102503.91;5016092;28;20048;-78
2022/08/06 03:55:27;;;;;;;2.15;0.10;;;;;;;9.23;52.54;102507.38;5032458;28;20049;-78
2022/08/06 03:57:57;;;;;;;1.45;0.30;;;;;;;9.21;52.41;102518.69;5016654;28;20136;-78
2022/08/06 04:00:25;;;;;;;0.60;0.20;;;;;;;9.10;52.71;102511.81;5021267;28;20044;-78
2022/08/06 04:02:54;;;;;;;0.60;0.10;;;;;;;9.13;52.33;102510.94;5003383;28;20042;-78
2022/08/06 04:05:24;;;;;;;1.58;0.22;;;;;;;9.11;52.98;102512.69;5000949;28;20037;-78
2022/08/06 04:07:54;;;;;;;2.83;0.20;;;;;;;9.17;52.65;102523.06;5004523;28;20789;-80
2022/08/06 04:10:21;;;;;;;1.60;0.40;;;;;;;9.30;52.59;102513.41;4999551;28;20060;-78
2022/08/06 04:12:47;;;;;;;0.32;0.10;;;;;;;9.46;52.20;102519.38;5007889;28;20117;-79
2022/08/06 04:15:13;;;;;;;0.65;0.13;;;;;;;9.50;52.02;102521.03;4997361;28;20504;-79
2022/08/06 04:17:42;;;;;;;0.40;0.10;;;;;;;9.56;51.77;102515.78;5010378;28;20053;-78
2022/08/06 04:20:10;;;;;;;0.40;0.17;;;;;;;9.56;51.95;102521.84;5025868;28;20092;-78
2022/08/06 04:22:35;;;;;;;0.90;0.30;;;;;;;9.48;51.58;102517.59;5013723;28;20536;-77
2022/08/06 04:25:01;;;;;;;0.30;0.20;;;;;;;9.59;51.92;102515.75;5025654;28;20060;-78
2022/08/06 04:27:27;;;;;;;1.55;0.20;;;;;;;9.60;51.61;102520.09;5023529;28;20045;-77
2022/08/06 04:29:56;;;;;;;1.30;0.20;;;;;;;9.55;51.73;102519.28;5014108;28;20029;-77
2022/08/06 04:32:24;;;;;;;1.63;0.20;;;;;;;9.45;51.57;102528.91;5015382;28;20076;-77
2022/08/06 04:34:51;;;;;;;0.52;0.20;;;;;;;9.42;51.69;102523.72;5014682;28;20037;-78
2022/08/06 04:37:18;;;;;;;0.50;0.10;;;;;;;9.41;51.65;102532.44;5008597;28;20136;-78
2022/08/06 04:39:44;;;;;;;1.95;0.20;;;;;;;9.34;51.60;102539.47;5011402;28;20036;-79
2022/08/06 04:42:11;;;;;;;0.50;0.30;;;;;;;9.22;51.86;102542.16;5009042;28;20041;-78
2022/08/06 04:44:37;;;;;;;0.63;0.20;;;;;;;9.24;52.36;102544.75;5012048;28;20095;-77
2022/08/06 04:47:04;;;;;;;2.33;0.13;;;;;;;9.40;51.98;102548.97;5008189;28;20048;-77
2022/08/06 04:49:29;;;;;;;0.80;0.20;;;;;;;9.46;51.61;102541.09;5010810;28;20296;-77
2022/08/06 04:51:55;;;;;;;0.50;0.38;;;;;;;9.46;51.50;102545.47;5012011;28;20064;-78
2022/08/06 04:54:21;;;;;;;0.68;0.20;;;;;;;9.59;51.69;102557.53;5010594;28;20034;-77
2022/08/06 04:56:46;;;;;;;0.45;0.30;;;;;;;9.58;51.64;102555.78;5016273;28;20076;-77
2022/08/06 04:59:12;;;;;;;1.23;0.22;;;;;;;9.50;51.63;102554.97;5027113;28;20093;-78
2022/08/06 05:01:38;;;;;;;0.38;0.20;;;;;;;9.73;51.81;102557.41;5015055;28;20029;-77
2022/08/06 05:04:04;;;;;;;0.80;0.20;;;;;;;9.91;51.21;102559.84;5011193;28;20041;-78
2022/08/06 05:06:49;;;;;;;1.13;0.15;;;;;;;9.93;50.83;102567.66;5014793;28;20061;-78
2022/08/06 05:09:23;;;;;;;0.75;0.20;;;;;;;10.13;50.79;102570.94;5025590;28;20485;-77
2022/08/06 05:12:25;;;;;;;0.60;0.20;;;;;;;10.47;49.75;102567.91;4994263;28;20786;-77
2022/08/06 05:15:00;;;;;;;2.78;0.20;;;;;;;10.68;48.97;102576.38;4974202;28;20103;-76
2022/08/06 05:17:36;;;;;;;0.90;0.20;;;;;;;10.60;48.99;102577.34;5009258;28;20071;-76
2022/08/06 05:20:20;;;;;;;0.20;0.10;;;;;;;10.62;48.75;102580.78;5009223;28;20042;-77
2022/08/06 05:22:51;;;;;;;0.45;0.15;;;;;;;10.66;49.06;102591.22;5009734;28;20038;-76
2022/08/06 05:25:17;;;;;;;1.33;0.20;;;;;;;10.60;48.76;102585.19;5011128;28;20029;-77
2022/08/06 05:27:42;;;;;;;0.60;0.15;;;;;;;10.81;49.22;102591.00;5012368;28;20056;-78
2022/08/06 05:30:09;;;;;;;4.82;0.40;;;;;;;10.85;48.68;102597.97;4999082;28;20044;-77
2022/08/06 05:32:42;;;;;;;0.90;0.30;;;;;;;11.33;49.02;102598.13;5015035;28;20141;-78
2022/08/06 05:35:08;;;;;;;0.52;0.43;;;;;;;11.56;47.69;102599.53;5012508;28;20060;-76
2022/08/06 05:37:33;;;;;;;0.50;0.10;;;;;;;11.38;47.00;102600.69;5010956;28;20504;-78
2022/08/06 05:39:59;;;;;;;2.38;0.20;;;;;;;11.30;48.60;102605.16;5016151;28;20312;-78
2022/08/06 05:42:24;;;;;;;1.02;0.20;;;;;;;11.43;48.31;102597.09;5014259;28;20119;-77
2022/08/06 05:44:50;;;;;;;1.05;0.40;;;;;;;11.29;47.69;102603.44;5008881;28;20034;-76
2022/08/06 05:47:20;;;;;;;1.60;0.73;;;;;;;11.53;47.77;102610.91;5011131;28;20055;-77
2022/08/06 05:49:51;;;;;;;1.17;0.20;;;;;;;11.92;48.12;102620.75;4999390;28;20044;-77
2022/08/06 05:52:22;;;;;;;2.70;0.20;;;;;;;12.17;46.73;102615.91;5023325;28;20049;-76
2022/08/06 05:54:53;;;;;;;1.17;0.20;;;;;;;12.28;47.34;102624.44;4999887;28;20037;-77
2022/08/06 05:57:27;;;;;;;0.20;0.10;;;;;;;12.10;47.00;102633.53;5007778;28;20048;-78
2022/08/06 05:59:59;;;;;;;3.10;0.20;;;;;;;11.74;48.32;102638.50;5025669;28;20030;-77
2022/08/06 06:02:27;;;;;;;3.28;0.10;;;;;;;11.85;48.57;102646.19;5004901;28;20041;-76
2022/08/06 06:04:53;;;;;;;2.17;0.10;;;;;;;11.61;49.59;102632.59;5011260;28;20052;-76
2022/08/06 06:07:19;;;;;;;0.50;0.40;;;;;;;11.52;50.83;102631.88;5016669;28;20499;-77
2022/08/06 06:09:45;;;;;;;1.80;0.30;;;;;;;11.47;51.98;102634.56;5015413;28;20041;-77
2022/08/06 06:12:11;;;;;;;1.38;0.20;;;;;;;11.65;52.07;102633.41;4994933;28;20041;-78
2022/08/06 06:14:43;;;;;;;0.25;0.10;;;;;;;11.86;52.03;102638.28;5025597;28;20025;-78
2022/08/06 06:17:30;;;;;;;1.00;0.10;;;;;;;11.96;52.05;102638.16;4996021;28;20153;-77
2022/08/06 06:20:10;;;;;;;0.22;0.00;;;;;;;11.96;51.83;102664.38;5015139;28;20055;-76
2022/08/06 06:22:40;;;;;;;1.90;0.13;;;;;;;11.76;52.73;102657.66;4998699;28;20581;-78
2022/08/06 06:25:18;;;;;;;2.35;0.10;;;;;;;11.91;52.39;102660.94;5002682;28;20033;-77
2022/08/06 06:28:13;;;;;;;4.82;0.20;;;;;;;11.95;51.75;102660.84;5003904;28;20041;-78
2022/08/06 06:30:53;;;;;;;0.90;0.10;;;;;;;12.10;51.97;102646.63;5017261;28;20118;-76
2022/08/06 06:33:26;;;;;;;1.73;0.20;;;;;;;12.16;51.96;102654.38;5015017;28;20131;-76
2022/08/06 06:35:56;;;;;;;0.50;0.10;;;;;;;12.40;52.09;102645.19;5017352;28;20033;-77
2022/08/06 06:38:30;;;;;;;0.68;0.15;;;;;;;12.63;51.92;102646.50;5013219;28;20041;-77
2022/08/06 06:40:59;;;;;;;0.82;0.10;;;;;;;12.88;52.26;102652.13;4998646;28;20037;-77
2022/08/06 06:43:34;;;;;;;3.47;0.55;;;;;;;13.16;51.57;102654.13;5014933;28;20049;-77
2022/08/06 06:46:21;;;;;;;0.35;0.10;;;;;;;13.51;51.46;102654.16;5014888;28;20021;-76
2022/08/06 06:48:51;;;;;;;2.78;0.10;;;;;;;13.67;49.72;102653.81;5015062;28;20061;-77
2022/08/06 06:51:43;;;;;;;3.03;0.55;;;;;;;13.73;49.50;102653.66;5020508;28;20038;-77
2022/08/06 06:54:18;;;;;;;0.32;0.10;;;;;;;14.24;49.43;102655.84;5010587;28;20085;-77
2022/08/06 06:56:47;;;;;;;0.30;0.20;;;;;;;14.64;48.23;102648.63;5010993;28;20033;-77
2022/08/06 06:59:19;;;;;;;0.88;0.10;;;;;;;15.14;47.80;102652.34;5010908;28;20041;-77
2022/08/06 07:01:47;;;;;;;0.82;0.10;;;;;;;15.63;45.67;102651.72;5001893;28;20254;-79
2022/08/06 07:04:15;;;;;;;0.38;0.10;;;;;;;16.09;45.29;102650.19;4998602;28;20047;-76
2022/08/06 07:06:44;;;;;;;2.08;0.10;;;;;;;16.73;45.06;102654.88;5017696;28;20026;-77
2022/08/06 07:09:16;;;;;;;0.93;0.20;;;;;;;16.65;43.35;102655.16;5004631;28;20124;-76
2022/08/06 07:11:47;;;;;;;0.15;0.10;;;;;;;20.12;38.83;102660.84;5000905;28;20484;-77
2022/08/06 07:14:14;;;;;;;0.10;0.00;;;;;;;20.65;35.43;102653.63;5010316;28;20404;-77
2022/08/06 07:16:41;;;;;;;1.60;0.10;;;;;;;22.18;31.51;102654.56;5012453;28;20354;-77
2022/08/06 07:19:08;;;;;;;0.60;0.10;;;;;;;23.97;28.30;102656.31;5010343;28;20364;-75
2022/08/06 07:21:34;;;;;;;0.10;0.00;;;;;;;26.88;26.02;102651.28;4997369;28;20048;-73
2022/08/06 07:24:00;;;;;;;0.38;0.10;;;;;;;28.11;22.92;102651.63;5001428;28;20219;-74
2022/08/06 07:26:28;;;;;;;2.08;0.10;;;;;;;28.49;22.43;102655.47;5007197;28;20034;-75
2022/08/06 07:28:56;;;;;;;0.28;0.00;;;;;;;28.07;22.94;102660.94;5032190;28;20103;-74
2022/08/06 07:31:26;;;;;;;1.05;0.10;;;;;;;28.27;22.67;102672.66;5030186;28;20037;-75
2022/08/06 07:33:53;;;;;;;0.65;0.00;;;;;;;29.23;20.85;102667.63;5016880;28;20059;-75
2022/08/06 07:36:22;;;;;;;3.03;0.10;;;;;;;30.13;20.89;102664.50;5031307;28;20029;-75
2022/08/06 07:38:49;;;;;;;1.45;0.10;;;;;;;29.85;21.34;102668.97;5015232;28;20056;-75
2022/08/06 07:41:16;;;;;;;0.10;0.00;;;;;;;29.73;20.05;102675.53;5006912;28;20036;-74
2022/08/06 07:43:53;;;;;;;0.30;0.00;;;;;;;29.21;20.64;102677.69;5011717;28;20052;-74
2022/08/06 07:46:28;;;;;;;0.30;0.00;;;;;;;29.97;20.02;102675.91;5031202;28;20021;-77
2022/08/06 07:48:57;;;;;;;2.03;0.10;;;;;;;29.29;20.94;102677.84;5028687;28;20564;-76
2022/08/06 07:51:27;;;;;;;1.02;0.00;;;;;;;29.45;21.28;102677.25;5031244;28;20036;-78
2022/08/06 07:53:53;;;;;;;1.35;0.10;;;;;;;30.26;19.57;102680.31;5002868;28;20033;-77
2022/08/06 07:56:19;;;;;;;0.28;0.05;;;;;;;29.97;19.30;102675.03;5019469;28;20033;-77
2022/08/06 07:58:45;;;;;;;0.35;0.00;;;;;;;30.94;17.79;102677.25;5014324;28;20059;-76
2022/08/06 08:01:12;;;;;;;1.00;0.00;;;;;;;28.61;20.22;102683.09;5032279;28;20041;-78
2022/08/06 08:06:25;;;;;;;0.98;0.00;;;;;;;31.29;18.44;102683.63;4994231;28;20034;-78
2022/08/06 08:09:02;;;;;;;0.77;0.10;;;;;;;30.59;19.83;102678.88;5012401;28;20056;-78
2022/08/06 08:11:28;;;;;;;0.30;0.00;;;;;;;30.71;18.49;102681.38;5019832;28;20040;-76
2022/08/06 08:13:58;;;;;;;1.45;0.00;;;;;;;32.03;18.53;102682.34;5007065;28;20045;-76
2022/08/06 08:16:26;;;;;;;0.85;0.08;;;;;;;31.94;17.69;102675.19;5022870;28;20560;-75
2022/08/06 08:18:53;;;;;;;0.68;0.00;;;;;;;30.14;18.18;102681.53;4991711;28;20103;-76
2022/08/06 08:21:19;;;;;;;2.38;0.00;;;;;;;30.98;17.82;102681.31;5013629;28;20033;-76
2022/08/06 08:23:46;;;;;;;2.55;0.55;;;;;;;31.49;17.92;102686.19;4998028;28;20389;-74
2022/08/06 08:26:12;;;;;;;1.38;0.10;;;;;;;29.39;18.74;102681.34;5022802;28;20030;-76
2022/08/06 08:28:37;;;;;;;0.77;0.28;;;;;;;25.50;23.39;102691.63;5006242;28;20681;-74
2022/08/06 08:31:05;;;;;;;0.45;0.10;;;;;;;21.62;27.85;102692.53;4998347;28;20025;-74
2022/08/06 08:33:32;;;;;;;1.48;0.10;;;;;;;20.33;30.22;102712.00;5008002;28;20042;-76
2022/08/06 08:35:58;;;;;;;0.47;0.10;;;;;;;19.37;32.00;102701.78;5024031;28;20055;-75
2022/08/06 08:38:24;;;;;;;1.45;0.10;;;;;;;18.86;33.26;102713.91;5013358;28;20130;-76
2022/08/06 08:40:52;;;;;;;2.13;0.20;;;;;;;18.86;33.56;102709.44;4996233;28;20124;-79
2022/08/06 08:43:22;;;;;;;0.60;0.10;;;;;;;19.14;32.62;102707.31;5011709;28;20326;-76
2022/08/06 08:45:51;;;;;;;1.40;0.10;;;;;;;19.18;32.80;102711.53;5010282;28;20439;-77
2022/08/06 08:48:23;;;;;;;2.55;0.13;;;;;;;18.64;33.47;102714.03;5009733;28;20053;-75
2022/08/06 08:50:49;;;;;;;1.17;0.10;;;;;;;18.86;32.47;102729.78;5012927;28;20061;-76
2022/08/06 08:53:25;;;;;;;0.70;0.15;;;;;;;17.76;34.56;102728.38;5010523;28;20085;-76
2022/08/06 08:55:51;;;;;;;1.63;0.20;;;;;;;17.77;36.57;102738.00;5011413;28;20033;-76
2022/08/06 08:58:17;;;;;;;0.85;0.35;;;;;;;17.22;37.64;102741.06;5012927;28;20144;-76
2022/08/06 09:00:44;;;;;;;1.38;0.03;;;;;;;16.83;37.60;102741.63;5012541;28;20033;-76
2022/08/06 09:03:10;;;;;;;0.95;0.00;;;;;;;16.92;37.28;102739.59;5006595;28;20866;-77
2022/08/06 09:05:36;;;;;;;0.30;0.00;;;;;;;17.45;36.59;102736.66;5027713;28;20080;-75
2022/08/06 09:08:02;;;;;;;1.40;0.10;;;;;;;17.40;36.79;102735.94;5013187;28;20064;-74
2022/08/06 09:10:29;;;;;;;3.05;0.22;;;;;;;17.49;35.61;102738.25;5014911;28;20042;-75
2022/08/06 09:12:55;;;;;;;1.02;0.10;;;;;;;19.08;34.21;102741.16;4993394;28;20057;-78
2022/08/06 09:15:21;;;;;;;2.08;0.10;;;;;;;21.88;28.49;102731.78;5013013;28;20500;-77
2022/08/06 09:17:47;;;;;;;2.97;0.10;;;;;;;23.38;25.28;102732.25;5012993;28;20096;-76
2022/08/06 09:20:13;;;;;;;5.28;0.10;;;;;;;23.85;24.03;102730.06;4998625;28;20833;-78
2022/08/06 09:22:38;;;;;;;7.82;0.30;;;;;;;25.31;22.50;102730.47;5011182;28;20049;-76
2022/08/06 09:25:04;;;;;;;2.05;0.10;;;;;;;25.51;22.77;102728.09;5011751;28;20037;-75
2022/08/06 09:27:34;;;;;;;1.58;0.30;;;;;;;26.60;20.86;102725.97;4993911;28;20056;-76
2022/08/06 09:30:03;;;;;;;0.20;0.10;;;;;;;26.22;21.91;102724.47;5026978;28;20044;-78
2022/08/06 09:32:45;;;;;;;1.75;0.20;;;;;;;23.96;25.22;102732.88;5013338;28;20033;-75
2022/08/06 09:35:26;;;;;;;1.67;0.20;;;;;;;21.69;27.05;102736.44;5028276;28;20025;-76
2022/08/06 09:38:01;;;;;;;3.90;0.40;;;;;;;20.33;29.31;102743.03;5012403;28;20064;-74
2022/08/06 09:40:26;;;;;;;5.57;0.68;;;;;;;19.24;31.46;102737.78;5011696;28;20033;-76
2022/08/06 09:42:52;;;;;;;2.65;1.10;;;;;;;18.91;31.56;102742.84;4998354;28;20111;-76
2022/08/06 09:45:20;;;;;;;2.75;0.90;;;;;;;17.94;34.01;102747.91;5017466;28;20086;-76
2022/08/06 09:47:48;;;;;;;3.08;1.00;;;;;;;19.15;32.56;102751.47;5021863;28;20040;-76
2022/08/06 09:50:13;;;;;;;4.68;0.85;;;;;;;20.02;30.50;102755.19;5036762;28;20025;-76
2022/08/06 09:52:39;;;;;;;1.67;0.52;;;;;;;20.65;29.67;102753.72;5033387;28;20025;-76
2022/08/06 09:55:05;;;;;;;2.33;0.75;;;;;;;21.80;27.32;102743.81;5028667;28;20049;-76
2022/08/06 09:57:45;;;;;;;2.33;0.80;;;;;;;21.69;27.08;102753.28;5024252;28;20439;-77
2022/08/06 10:00:23;;;;;;;5.28;1.60;;;;;;;21.83;28.79;102759.63;4995522;28;20140;-76
2022/08/06 10:02:49;;;;;;;2.75;1.00;;;;;;;21.97;27.58;102752.50;5006264;28;20214;-75
2022/08/06 10:05:15;;;;;;;4.72;1.27;;;;;;;21.65;27.65;102761.56;5011302;28;20529;-76
2022/08/06 10:07:41;;;;;;;4.72;1.33;;;;;;;21.80;27.79;102767.75;5004580;28;20373;-76
2022/08/06 10:10:06;;;;;;;2.50;1.15;;;;;;;22.35;27.65;102761.84;5008912;28;20033;-76
2022/08/06 10:12:32;;;;;;;5.00;1.15;;;;;;;22.58;26.63;102758.66;5013124;28;20064;-77
2022/08/06 10:14:59;;;;;;;2.47;1.13;;;;;;;22.99;26.06;102760.53;4999462;28;20415;-76
2022/08/06 10:17:25;;;;;;;1.27;0.40;;;;;;;22.78;25.36;102759.22;5009189;28;20913;-78
2022/08/06 10:20:10;;;;;;;2.22;0.90;;;;;;;23.24;24.45;102764.31;5012688;28;20061;-77
2022/08/06 10:22:48;;;;;;;3.95;1.50;;;;;;;22.29;26.54;102762.22;5011871;28;20103;-75
2022/08/06 10:25:15;;;;;;;4.28;1.95;;;;;;;22.26;26.92;102763.25;4991529;28;20192;-75
2022/08/06 10:27:41;;;;;;;5.38;1.52;;;;;;;22.10;26.24;102766.00;5008157;28;20049;-75
2022/08/06 10:30:10;;;;;;;8.55;1.40;;;;;;;21.44;26.42;102767.09;5014968;28;20111;-77
2022/08/06 10:32:46;;;;;;;3.28;0.85;;;;;;;22.49;24.94;102759.19;5023095;28;20500;-78
2022/08/06 10:35:16;;;;;;;5.20;4.00;;;;;;;23.24;24.25;102761.63;4991967;28;20747;-76
2022/08/06 10:37:45;;;;;;;1.85;1.65;;;;;;;22.55;24.28;102761.47;5008743;28;20049;-77
2022/08/06 10:40:13;;;;;;;12.98;11.68;;;;;;;22.41;24.90;102758.81;5009618;28;20121;-75
2022/08/06 10:42:39;;;;;;;11.90;8.85;;;;;;;21.48;26.05;102757.19;5015778;28;20042;-75
2022/08/06 10:45:05;;;;;;;3.13;2.80;;;;;;;22.51;24.67;102761.78;5010690;28;20788;-76
2022/08/06 10:47:32;;;;;;;3.00;1.40;;;;;;;21.83;24.80;102754.28;5013134;28;20064;-76
2022/08/06 10:49:59;;;;;;;5.72;3.20;;;;;;;22.27;25.29;102754.34;5022887;28;20113;-75
2022/08/06 10:52:25;;;;;;;2.88;1.33;;;;;;;21.68;25.10;102756.88;5016266;28;20041;-76
2022/08/06 10:54:51;;;;;;;2.55;1.42;;;;;;;22.41;24.11;102753.50;5006399;28;20439;-76
2022/08/06 10:57:18;;;;;;;4.47;1.27;;;;;;;22.99;24.33;102755.22;5012609;28;20050;-74
2022/08/06 10:59:45;;;;;;;2.63;1.10;;;;;;;23.56;22.98;102756.03;5000824;28;20029;-74
2022/08/06 11:02:49;;;;;;;3.45;1.20;;;;;;;23.58;23.20;102756.78;5014018;28;20049;-75
2022/08/06 11:05:17;;;;;;;2.67;1.33;;;;;;;23.92;21.58;102752.72;5015357;28;20498;-76
2022/08/06 11:08:14;;;;;;;3.45;1.45;;;;;;;24.09;22.53;102754.25;5016035;28;20055;-75
2022/08/06 11:11:07;;;;;;;4.57;1.80;;;;;;;23.51;22.38;102750.16;4999618;28;20374;-77
2022/08/06 11:13:37;;;;;;;2.88;1.23;;;;;;;23.76;22.35;102755.53;5014000;28;20511;-76
2022/08/06 11:16:04;;;;;;;2.03;1.20;;;;;;;23.94;22.20;102747.28;5013643;28;20060;-76
2022/08/06 11:18:29;;;;;;;1.42;0.80;;;;;;;24.22;20.56;102746.25;5014669;28;20044;-76
2022/08/06 11:20:58;;;;;;;2.95;1.55;;;;;;;23.64;21.78;102748.38;5029493;28;20038;-77
2022/08/06 11:23:29;;;;;;;2.53;1.48;;;;;;;23.46;22.49;102744.25;5029614;28;20103;-77
2022/08/06 11:26:01;;;;;;;36.13;24.95;;;;;;;23.09;22.46;102736.78;5012161;28;20033;-76
2022/08/06 11:28:32;;;;;;;12.40;11.18;;;;;;;22.95;22.48;102743.03;5018803;28;20056;-74
2022/08/06 11:31:03;;;;;;;39.47;35.25;;;;;;;22.74;23.22;102742.59;4996625;28;20069;-76
2022/08/06 11:33:35;;;;;;;22.08;18.60;;;;;;;21.66;23.28;102737.50;5013751;28;20044;-79
2022/08/06 11:36:23;;;;;;;56.22;50.90;;;;;;;22.16;23.53;102744.34;5016904;28;20075;-77
2022/08/06 11:38:54;;;;;;;52.38;47.63;;;;;;;23.07;24.17;102737.84;5010433;28;20058;-77
2022/08/06 11:41:30;;;;;;;;;;;;;;;22.90;23.08;102734.47;5016213;28;20033;-77